Time;durP1;ratioP1;P1;durP2;ratioP2;P2;SDS_P1;SDS_P2;PMS_P1;PMS_P2;Temp;Humidity;BMP_temperature;BMP_pressure;BME280_temperature;BME280_humidity;BME280_pressure;Samples;Min_cycle;Max_cycle;Signal;HPM_P1;HPM_P2
2022/08/14 00:10:56;;;;;;;11.8;15.4;;;;;;;19.3;100;98190;;;;
2022/08/14 00:20:56;;;;;;;11.8;15.4;;;;;;;19.2;100;98190;;;;
2022/08/14 00:30:58;;;;;;;11.4;16.3;;;;;;;19.1;100;98180;;;;
2022/08/14 00:41:56;;;;;;;11.4;16.3;;;;;;;19.1;100;98160;;;;
2022/08/14 00:51:58;;;;;;;11.4;16.3;;;;;;;19.1;100;98150;;;;
2022/08/14 01:02:56;;;;;;;9.8;13.7;;;;;;;19;100;98150;;;;
2022/08/14 01:13:59;;;;;;;9.8;13.7;;;;;;;19.2;100;98150;;;;
2022/08/14 01:23:56;;;;;;;9.8;13.7;;;;;;;19.3;100;98140;;;;
2022/08/14 01:34:56;;;;;;;10.2;13.2;;;;;;;19.3;100;98140;;;;
2022/08/14 01:45:56;;;;;;;10.2;13.2;;;;;;;19.4;100;98130;;;;
2022/08/14 01:55:57;;;;;;;10.2;13.2;;;;;;;19.3;100;98140;;;;
2022/08/14 02:05:57;;;;;;;10.3;17;;;;;;;19.2;100;98130;;;;
2022/08/14 02:15:59;;;;;;;10.3;17;;;;;;;19.2;100;98140;;;;
2022/08/14 02:26:58;;;;;;;10.3;17;;;;;;;19.2;100;98130;;;;
2022/08/14 02:36:58;;;;;;;9.2;12.3;;;;;;;19.2;100;98120;;;;
2022/08/14 02:47:56;;;;;;;9.2;12.3;;;;;;;19.2;100;98120;;;;
2022/08/14 02:57:56;;;;;;;9.2;12.3;;;;;;;19.2;100;98120;;;;
2022/08/14 03:08:57;;;;;;;9.7;14.8;;;;;;;19.1;100;98120;;;;
2022/08/14 03:19:56;;;;;;;9.7;14.8;;;;;;;19.1;100;98120;;;;
2022/08/14 03:30:56;;;;;;;10.7;14.5;;;;;;;19;100;98110;;;;
2022/08/14 03:40:56;;;;;;;10.7;14.5;;;;;;;18.9;100;98110;;;;
2022/08/14 03:51:56;;;;;;;10.7;14.5;;;;;;;18.8;100;98110;;;;
2022/08/14 04:01:56;;;;;;;11.2;15.3;;;;;;;18.8;100;98110;;;;
2022/08/14 04:11:58;;;;;;;11.2;15.3;;;;;;;18.9;100;98110;;;;
2022/08/14 04:21:57;;;;;;;11.2;15.3;;;;;;;18.9;100;98110;;;;
2022/08/14 04:32:56;;;;;;;9.9;12.9;;;;;;;19;100;98110;;;;
2022/08/14 04:43:56;;;;;;;9.9;12.9;;;;;;;19.1;100;98110;;;;
2022/08/14 04:54:57;;;;;;;9.9;12.9;;;;;;;19.1;100;98110;;;;
2022/08/14 05:04:56;;;;;;;11.4;16.8;;;;;;;19.3;100;98110;;;;
2022/08/14 05:14:56;;;;;;;11.4;16.8;;;;;;;19.6;100;98110;;;;
2022/08/14 05:25:58;;;;;;;11.4;16.8;;;;;;;19.5;100;98100;;;;
2022/08/14 05:36:56;;;;;;;12.3;18.1;;;;;;;19.5;100;98100;;;;
2022/08/14 05:46:56;;;;;;;12.3;18.1;;;;;;;19.7;100;98080;;;;
2022/08/14 05:56:56;;;;;;;12.3;18.1;;;;;;;20;100;98090;;;;
2022/08/14 06:07:57;;;;;;;11.9;17.2;;;;;;;20.2;100;98100;;;;
2022/08/14 06:18:56;;;;;;;11.9;17.2;;;;;;;20.5;100;98110;;;;
2022/08/14 06:29:56;;;;;;;11.9;17.2;;;;;;;21;100;98110;;;;
2022/08/14 06:40:56;;;;;;;11;14.2;;;;;;;21.3;100;98110;;;;
2022/08/14 06:50:56;;;;;;;11;14.2;;;;;;;21.9;100;98100;;;;
2022/08/14 07:11:56;;;;;;;7.9;11.5;;;;;;;21.6;100;98100;;;;
2022/08/14 07:21:57;;;;;;;7.9;11.5;;;;;;;21.6;100;98100;;;;
2022/08/14 07:32:56;;;;;;;8.3;12.1;;;;;;;21.6;100;98100;;;;
2022/08/14 07:43:56;;;;;;;8.3;12.1;;;;;;;22;100;98100;;;;
2022/08/14 07:54:56;;;;;;;8.3;12.1;;;;;;;22.3;100;98100;;;;
2022/08/14 08:05:56;;;;;;;7.9;11.5;;;;;;;22.7;100;98100;;;;
2022/08/14 08:16:56;;;;;;;7.9;11.5;;;;;;;23.3;100;98100;;;;
2022/08/14 08:27:56;;;;;;;7.9;11.5;;;;;;;23.6;100;98100;;;;
2022/08/14 08:38:57;;;;;;;6.3;12.1;;;;;;;24.2;100;98100;;;;
2022/08/14 08:49:56;;;;;;;6.3;12.1;;;;;;;24.4;100;98100;;;;
2022/08/14 08:59:57;;;;;;;6.3;12.1;;;;;;;25.1;100;98090;;;;
2022/08/14 09:10:57;;;;;;;5.4;8.2;;;;;;;25.4;100;98090;;;;
2022/08/14 09:20:56;;;;;;;5.4;8.2;;;;;;;25.6;100;98100;;;;
2022/08/14 09:30:57;;;;;;;5.4;8.2;;;;;;;25.1;100;98080;;;;
2022/08/14 09:41:56;;;;;;;4.3;8.1;;;;;;;25.4;100;98090;;;;
2022/08/14 09:52:57;;;;;;;4.3;8.1;;;;;;;25.8;100;98100;;;;
2022/08/14 10:03:58;;;;;;;3.8;6.4;;;;;;;25.4;100;98090;;;;
2022/08/14 10:14:57;;;;;;;3.8;6.4;;;;;;;25;100;98070;;;;
2022/08/14 10:24:56;;;;;;;3.8;6.4;;;;;;;26.1;100;98080;;;;
2022/08/14 10:35:59;;;;;;;3.5;6;;;;;;;26;100;98070;;;;
2022/08/14 10:47:06;;;;;;;3.5;6;;;;;;;26.4;100;98080;;;;
2022/08/14 10:57:56;;;;;;;3.5;6;;;;;;;26.8;100;98080;;;;
2022/08/14 11:07:57;;;;;;;3.3;5.7;;;;;;;26.9;100;98070;;;;
2022/08/14 11:17:57;;;;;;;3.3;5.7;;;;;;;27.3;100;98070;;;;
2022/08/14 11:28:57;;;;;;;3.3;5.7;;;;;;;26.9;100;98070;;;;
2022/08/14 11:38:57;;;;;;;3.2;5.1;;;;;;;27.4;100;98060;;;;
2022/08/14 11:49:57;;;;;;;3.2;5.1;;;;;;;27.7;100;98070;;;;
2022/08/14 12:01:00;;;;;;;3.2;5.1;;;;;;;27.8;100;98070;;;;
2022/08/14 12:10:57;;;;;;;2.4;4.4;;;;;;;28;100;98070;;;;
2022/08/14 12:20:57;;;;;;;2.4;4.4;;;;;;;26;100;98060;;;;
2022/08/14 12:31:56;;;;;;;2.1;6.2;;;;;;;26.3;100;98040;;;;
2022/08/14 12:42:03;;;;;;;2.1;6.2;;;;;;;26.1;100;98040;;;;
2022/08/14 12:51:57;;;;;;;2.1;6.2;;;;;;;26.9;100;98030;;;;
2022/08/14 13:02:57;;;;;;;2.1;4.5;;;;;;;27.2;100;98010;;;;
2022/08/14 13:13:57;;;;;;;2.1;4.5;;;;;;;26.6;100;98000;;;;
2022/08/14 13:23:57;;;;;;;2.1;4.5;;;;;;;26.5;100;97980;;;;
2022/08/14 13:34:57;;;;;;;1.7;3.9;;;;;;;27;100;97960;;;;
2022/08/14 13:45:57;;;;;;;1.7;3.9;;;;;;;27.4;100;97960;;;;
2022/08/14 13:56:57;;;;;;;1.7;3.9;;;;;;;26.4;100;97950;;;;
2022/08/14 14:06:57;;;;;;;2.9;5.6;;;;;;;26.5;100;97940;;;;
2022/08/14 14:17:57;;;;;;;2.9;5.6;;;;;;;27.2;100;97930;;;;
2022/08/14 14:28:57;;;;;;;2.9;5.6;;;;;;;27.3;100;97930;;;;
2022/08/14 14:39:57;;;;;;;3.7;7.3;;;;;;;27.4;100;97930;;;;
2022/08/14 14:50:57;;;;;;;3.7;7.3;;;;;;;27.6;100;97930;;;;
2022/08/14 15:00:58;;;;;;;3.7;7.3;;;;;;;26.9;100;97920;;;;
2022/08/14 15:10:58;;;;;;;4;6.5;;;;;;;27.5;100;97910;;;;
2022/08/14 15:20:58;;;;;;;4;6.5;;;;;;;28.4;100;97920;;;;
2022/08/14 15:31:57;;;;;;;4.2;6.5;;;;;;;28.6;100;97950;;;;
2022/08/14 15:42:57;;;;;;;4.2;7.7;;;;;;;28.1;100;97940;;;;
2022/08/14 15:53:57;;;;;;;4.2;7.7;;;;;;;27.2;100;97940;;;;
2022/08/14 16:03:57;;;;;;;5.1;7.4;;;;;;;30.6;100;97940;;;;
2022/08/14 16:14:57;;;;;;;5.1;7.4;;;;;;;31.5;98.2;97920;;;;
2022/08/14 16:26:00;;;;;;;5.1;7.4;;;;;;;29.8;100;97910;;;;
2022/08/14 16:36:57;;;;;;;5;8.1;;;;;;;28.1;100;97910;;;;
2022/08/14 16:46:57;;;;;;;5;8.1;;;;;;;27.1;100;97910;;;;
2022/08/14 16:57:57;;;;;;;5;8.1;;;;;;;26.1;100;97880;;;;
2022/08/14 17:07:57;;;;;;;5.7;8.6;;;;;;;25.5;100;97900;;;;
2022/08/14 17:18:57;;;;;;;5.7;8.6;;;;;;;25.1;100;97890;;;;
2022/08/14 17:28:57;;;;;;;5.7;8.6;;;;;;;24.7;100;97880;;;;
2022/08/14 17:39:57;;;;;;;6.9;9;;;;;;;24.1;100;97880;;;;
2022/08/14 17:49:57;;;;;;;6.9;9;;;;;;;23.7;100;97880;;;;
2022/08/14 18:00:00;;;;;;;6.9;9;;;;;;;23.6;100;97870;;;;
2022/08/14 18:09:57;;;;;;;7.2;10.8;;;;;;;23.3;100;97870;;;;
2022/08/14 18:20:57;;;;;;;7.2;10.8;;;;;;;23.1;100;97880;;;;
2022/08/14 18:30:58;;;;;;;7.2;10.8;;;;;;;22.8;100;97890;;;;
2022/08/14 18:41:57;;;;;;;8.6;13.3;;;;;;;22.6;100;97900;;;;
2022/08/14 18:51:57;;;;;;;8.6;13.3;;;;;;;22.3;100;97900;;;;
2022/08/14 19:01:57;;;;;;;8.6;13.3;;;;;;;22.1;100;97900;;;;
2022/08/14 19:12:57;;;;;;;9.4;12.3;;;;;;;21.8;100;97890;;;;
2022/08/14 19:22:57;;;;;;;9.4;12.3;;;;;;;21.8;100;97890;;;;
2022/08/14 19:32:57;;;;;;;10.2;14;;;;;;;21.7;100;97880;;;;
2022/08/14 19:43:57;;;;;;;10.2;14;;;;;;;21.5;100;97900;;;;
2022/08/14 19:53:57;;;;;;;10.2;14;;;;;;;21.3;100;97900;;;;
2022/08/14 20:04:57;;;;;;;11.2;15.6;;;;;;;21.2;100;97890;;;;
2022/08/14 20:14:58;;;;;;;11.2;15.6;;;;;;;21.1;100;97880;;;;
2022/08/14 20:24:58;;;;;;;11.2;15.6;;;;;;;20.9;100;97880;;;;
2022/08/14 20:35:57;;;;;;;12.1;16.2;;;;;;;20.7;100;97880;;;;
2022/08/14 20:45:58;;;;;;;12.1;16.2;;;;;;;20.5;100;97870;;;;
2022/08/14 20:56:58;;;;;;;12.1;16.2;;;;;;;20.4;100;97860;;;;
2022/08/14 21:06:57;;;;;;;13.3;16.5;;;;;;;20.3;100;97860;;;;
2022/08/14 21:17:57;;;;;;;13.3;16.5;;;;;;;20.1;100;97860;;;;
2022/08/14 21:27:58;;;;;;;13.3;16.5;;;;;;;19.9;100;97860;;;;
2022/08/14 21:38:57;;;;;;;14.4;17.3;;;;;;;19.7;100;97860;;;;
2022/08/14 21:48:57;;;;;;;14.4;17.3;;;;;;;19.3;100;97840;;;;
2022/08/14 22:00:03;;;;;;;14.4;17.3;;;;;;;19.1;100;97850;;;;
2022/08/14 22:09:57;;;;;;;14.7;20.5;;;;;;;19;100;97850;;;;
2022/08/14 22:20:57;;;;;;;14.7;20.5;;;;;;;18.8;100;97850;;;;
2022/08/14 22:31:57;;;;;;;14.7;20.5;;;;;;;18.6;100;97840;;;;
2022/08/14 22:41:57;;;;;;;14.6;20.1;;;;;;;18.5;100;97850;;;;
2022/08/14 22:51:57;;;;;;;14.6;20.1;;;;;;;18.4;100;97840;;;;
2022/08/14 23:02:57;;;;;;;15.4;18.8;;;;;;;18.4;100;97840;;;;
2022/08/14 23:13:57;;;;;;;15.4;18.8;;;;;;;18.3;100;97840;;;;
2022/08/14 23:24:57;;;;;;;15.4;18.8;;;;;;;18.3;100;97830;;;;
2022/08/14 23:35:57;;;;;;;15;20.6;;;;;;;18.2;100;97820;;;;
2022/08/14 23:45:57;;;;;;;15;20.6;;;;;;;18.1;100;97830;;;;
2022/08/14 23:55:57;;;;;;;15;20.6;;;;;;;18;100;97830;;;;
